Live aus Altenrhein
LIVE
LSZR 210750Z 28005KT 250V320 9999 FEW020 21/17 Q1015 NOSIG RMK D

People´s Info Center:

Öffnungszeiten Mo-Fr, 8-18 Uhr

 

info@peoples.ch

 
Aus Österreich:

T: +43 (0)5572 203 610

 

Aus CH / LI / DE:

T: +41 (0)71 858 51 60

 

Wann muss ich in Altenrhein einchecken?

 

Wir bitten Sie, mindestens 30 Minuten vor Abflug in Altenrhein einzuchecken und eine gültige ID oder einen Pass sowie eine Buchungsbestätigung mitzubringen.

 

Mehr Informationen zum Check-in